Alpengasthof Waldrast Koralpe
Wetterdaten: aktuell Mittwoch, 28.07.2021 13:23
Datum Zeit Temp. I. Temp. A. Feuchte I. Feuchte A. Luftdruck Regen Wind Richtung Richtung Taupunkt Windchill
28.07.2021 13:23 21,9 C 20,8 C 39 % 20 % 1007,6 hPa 0,0 l/m 36,4 km/h SW22.5 215 -3,0 C 20,8 C
28.07.2021 13:18 21,8 C 20,7 C 39 % 20 % 1007,6 hPa 0,7 l/m 34,7 km/h S-SW45 205 -3,1 C 20,7 C
28.07.2021 13:13 21,8 C 21,2 C 39 % 20 % 1007,4 hPa 0,0 l/m 30,5 km/h SW45 220 -2,6 C 21,2 C
28.07.2021 13:08 21,7 C 20,7 C 40 % 20 % 1007,6 hPa 0,0 l/m 30,5 km/h SW45 220 -3,1 C 20,7 C
28.07.2021 13:03 21,7 C 20,9 C 39 % 20 % 1007,5 hPa 0,0 l/m 32,0 km/h S-SW22.5 210 -2,9 C 20,9 C
28.07.2021 12:58 21,7 C 20,8 C 40 % 20 % 1007,6 hPa 0,7 l/m 34,9 km/h SW22.5 220 -3,0 C 20,8 C
28.07.2021 12:53 21,6 C 20,4 C 40 % 20 % 1007,8 hPa 0,0 l/m 35,4 km/h SW22.5 215 -3,3 C 20,4 C
28.07.2021 12:48 21,7 C 20,6 C 41 % 20 % 1007,7 hPa 0,0 l/m 32,4 km/h SW45 215 -3,1 C 20,6 C
28.07.2021 12:43 21,7 C 20,4 C 41 % 20 % 1007,8 hPa 1,4 l/m 34,4 km/h SW22.5 220 -3,3 C 20,4 C
28.07.2021 12:38 21,6 C 20,3 C 42 % 20 % 1007,9 hPa 0,0 l/m 32,0 km/h SW22.5 220 -3,4 C 20,3 C
28.07.2021 12:33 21,6 C 20,4 C 41 % 20 % 1007,8 hPa 0,0 l/m 34,4 km/h SW22.5 220 -3,3 C 20,4 C
28.07.2021 12:28 21,6 C 20,4 C 42 % 20 % 1007,8 hPa 0,0 l/m 31,8 km/h SW45 215 -3,3 C 20,4 C
28.07.2021 12:23 21,6 C 20,4 C 42 % 20 % 1007,8 hPa 0,0 l/m 30,3 km/h SW22.5 215 -3,3 C 20,4 C
28.07.2021 12:18 21,5 C 20,1 C 40 % 20 % 1008,0 hPa 0,0 l/m 31,6 km/h SW22.5 225 -3,5 C 20,1 C
28.07.2021 12:13 21,4 C 20,4 C 40 % 20 % 1007,8 hPa 0,0 l/m 29,7 km/h SW22.5 220 -3,3 C 20,4 C
28.07.2021 12:08 21,4 C 19,3 C 40 % 20 % 1008,4 hPa 0,0 l/m 21,4 km/h SW45 220 -4,2 C 19,3 C
28.07.2021 12:03 21,3 C 19,4 C 40 % 20 % 1008,4 hPa 0,0 l/m 26,6 km/h SW22.5 215 -4,1 C 19,4 C
28.07.2021 11:58 21,3 C 19,2 C 41 % 20 % 1008,5 hPa 0,0 l/m 26,6 km/h SW22.5 215 -4,3 C 19,2 C
28.07.2021 11:53 21,4 C 20,3 C 40 % 20 % 1007,9 hPa 0,0 l/m 22,9 km/h SW22.5 220 -3,4 C 20,3 C
28.07.2021 11:48 21,4 C 20,4 C 40 % 20 % 1007,8 hPa 0,0 l/m 26,0 km/h SW45 215 -3,3 C 20,4 C
28.07.2021 11:43 21,3 C 21,0 C 40 % 20 % 1007,5 hPa 0,0 l/m 31,6 km/h SW22.5 225 -2,8 C 21,0 C
28.07.2021 11:38 21,3 C 21,4 C 39 % 20 % 1007,3 hPa 0,0 l/m 31,6 km/h SW22.5 225 -2,5 C 21,4 C
28.07.2021 11:33 21,3 C 21,1 C 39 % 20 % 1007,4 hPa 0,0 l/m 24,1 km/h SW22.5 220 -2,7 C 21,1 C
28.07.2021 11:28 21,2 C 20,1 C 40 % 20 % 1008,0 hPa 0,0 l/m 23,5 km/h SW22.5 220 -3,5 C 20,1 C
28.07.2021 11:23 21,2 C 20,0 C 41 % 20 % 1009,2 hPa 0,0 l/m 23,7 km/h SW22.5 225 -3,6 C 20,0 C
28.07.2021 11:18 21,2 C 20,0 C 40 % 20 % 1009,2 hPa 0,0 l/m 23,0 km/h SW22.5 225 -3,6 C 20,0 C
28.07.2021 11:13 21,2 C 20,2 C 40 % 20 % 1009,1 hPa 0,0 l/m 22,5 km/h SW22.5 230 -3,5 C 20,2 C
28.07.2021 11:08 21,1 C 20,1 C 40 % 20 % 1009,1 hPa 0,0 l/m 20,8 km/h SW22.5 225 -3,5 C 20,1 C
28.07.2021 11:03 21,0 C 19,3 C 40 % 20 % 1008,4 hPa 0,0 l/m 24,6 km/h SW22.5 225 -4,2 C 19,3 C
28.07.2021 10:58 21,1 C 19,5 C 40 % 20 % 1008,3 hPa 0,0 l/m 25,1 km/h SW22.5 230 -4,0 C 19,5 C
28.07.2021 10:53 21,0 C 20,3 C 40 % 20 % 1007,9 hPa 0,0 l/m 23,6 km/h SW22.5 225 -3,4 C 20,3 C
28.07.2021 10:48 21,0 C 20,1 C 41 % 20 % 1008,0 hPa 0,0 l/m 25,3 km/h SW22.5 225 -3,5 C 20,1 C
28.07.2021 10:43 21,0 C 20,1 C 40 % 20 % 1008,0 hPa 0,0 l/m 28,7 km/h SW22.5 230 -3,5 C 20,1 C
28.07.2021 10:38 20,9 C 20,3 C 41 % 20 % 1007,9 hPa 0,0 l/m 24,1 km/h SW22.5 230 -3,4 C 20,3 C
28.07.2021 10:33 20,8 C 19,9 C 41 % 20 % 1008,1 hPa 0,0 l/m 23,3 km/h SW22.5 220 -3,7 C 19,9 C
28.07.2021 10:28 20,8 C 19,8 C 42 % 20 % 1008,1 hPa 0,0 l/m 25,4 km/h SW22.5 220 -3,8 C 19,8 C
28.07.2021 10:23 20,8 C 19,5 C 41 % 20 % 1008,3 hPa 0,0 l/m 23,6 km/h SW22.5 220 -4,0 C 19,5 C
28.07.2021 10:18 20,7 C 20,0 C 42 % 20 % 1008,0 hPa 0,0 l/m 26,8 km/h SW45 215 -3,6 C 20,0 C
28.07.2021 10:13 20,7 C 19,4 C 41 % 20 % 1009,5 hPa 0,0 l/m 23,0 km/h SW22.5 215 -4,1 C 19,4 C
28.07.2021 10:08 20,7 C 19,5 C 41 % 20 % 1008,3 hPa 0,0 l/m 24,0 km/h SW22.5 225 -4,0 C 19,5 C
28.07.2021 10:03 20,6 C 19,3 C 41 % 20 % 1008,4 hPa 0,0 l/m 23,9 km/h SW22.5 225 -4,2 C 19,3 C
28.07.2021 09:58 20,5 C 19,1 C 41 % 20 % 1008,5 hPa 0,0 l/m 23,7 km/h SW22.5 225 -4,4 C 19,1 C
28.07.2021 09:53 20,5 C 18,9 C 41 % 20 % 1008,6 hPa 0,0 l/m 23,1 km/h SW22.5 220 -4,5 C 18,9 C
28.07.2021 09:48 20,5 C 18,7 C 41 % 20 % 1008,7 hPa 0,0 l/m 25,8 km/h SW22.5 215 -4,7 C 18,7 C
28.07.2021 09:43 20,5 C 18,8 C 41 % 20 % 1008,7 hPa 0,0 l/m 21,0 km/h SW22.5 230 -4,6 C 18,8 C
28.07.2021 09:38 20,4 C 18,7 C 41 % 20 % 1008,7 hPa 0,0 l/m 23,3 km/h SW22.5 225 -4,7 C 18,7 C
28.07.2021 09:33 20,4 C 17,7 C 41 % 20 % 1010,5 hPa 0,0 l/m 20,7 km/h SW22.5 225 -5,5 C 17,7 C
28.07.2021 09:28 20,4 C 17,7 C 41 % 20 % 1010,5 hPa 0,0 l/m 21,0 km/h SW22.5 225 -5,5 C 17,7 C
28.07.2021 09:23 20,3 C 17,3 C 41 % 20 % 1010,7 hPa 0,0 l/m 21,0 km/h SW22.5 225 -5,9 C 17,3 C
28.07.2021 09:18 20,3 C 16,6 C 41 % 20 % 1011,1 hPa 0,0 l/m 18,2 km/h SW22.5 215 -6,4 C 16,6 C
28.07.2021 09:13 20,3 C 16,9 C 40 % 20 % 1009,7 hPa 0,0 l/m 21,8 km/h SW22.5 225 -6,2 C 16,9 C
28.07.2021 09:08 20,3 C 17,0 C 41 % 20 % 1009,7 hPa 0,0 l/m 18,8 km/h SW22.5 215 -6,1 C 17,0 C
28.07.2021 09:03 20,3 C 16,9 C 41 % 20 % 1010,9 hPa 0,0 l/m 21,4 km/h SW22.5 215 -6,2 C 16,9 C
28.07.2021 08:58 20,3 C 16,3 C 41 % 20 % 1010,1 hPa 0,0 l/m 16,6 km/h S-SW22.5 210 -6,7 C 16,3 C
28.07.2021 08:53 20,3 C 16,4 C 41 % 20 % 1010,0 hPa 0,0 l/m 20,0 km/h S-SW22.5 205 -6,6 C 16,4 C
28.07.2021 08:48 20,3 C 16,4 C 41 % 20 % 1010,0 hPa 0,0 l/m 20,0 km/h SW22.5 225 -6,6 C 16,4 C
28.07.2021 08:43 20,3 C 16,4 C 41 % 20 % 1011,2 hPa 0,0 l/m 18,3 km/h SW22.5 225 -6,6 C 16,4 C
28.07.2021 08:38 20,3 C 16,7 C 41 % 20 % 1011,0 hPa 0,0 l/m 22,9 km/h SW22.5 220 -6,3 C 16,7 C
28.07.2021 08:33 20,3 C 16,7 C 41 % 20 % 1011,0 hPa 0,0 l/m 19,1 km/h SW22.5 225 -6,3 C 16,7 C
28.07.2021 08:28 20,3 C 16,6 C 41 % 20 % 1009,9 hPa 0,0 l/m 17,8 km/h SW22.5 215 -6,4 C 16,6 C
28.07.2021 08:23 20,3 C 16,6 C 40 % 20 % 1009,9 hPa 0,0 l/m 20,3 km/h SW22.5 225 -6,4 C 16,6 C
28.07.2021 08:18 20,3 C 16,6 C 40 % 20 % 1011,1 hPa 0,0 l/m 17,5 km/h SW22.5 215 -6,4 C 16,6 C
28.07.2021 08:13 20,3 C 16,6 C 40 % 20 % 1011,1 hPa 0,0 l/m 20,2 km/h SW22.5 220 -6,4 C 16,6 C
28.07.2021 08:08 20,3 C 16,2 C 40 % 20 % 1011,3 hPa 0,0 l/m 16,0 km/h SW22.5 215 -6,8 C 16,2 C
28.07.2021 08:03 20,3 C 16,2 C 40 % 20 % 1011,3 hPa 0,0 l/m 15,1 km/h S-SW22.5 205 -6,8 C 16,2 C
28.07.2021 07:58 20,3 C 16,0 C 40 % 20 % 1011,4 hPa 0,0 l/m 19,6 km/h SW22.5 220 -6,9 C 16,0 C
28.07.2021 07:53 20,3 C 15,9 C 40 % 20 % 1010,3 hPa 0,0 l/m 16,0 km/h S-SW22.5 205 -7,0 C 15,9 C
28.07.2021 07:48 20,3 C 16,6 C 40 % 20 % 1011,1 hPa 0,0 l/m 17,1 km/h S-SW22.5 210 -6,4 C 16,6 C
28.07.2021 07:43 20,3 C 16,1 C 40 % 20 % 1011,4 hPa 0,0 l/m 14,0 km/h S-SW22.5 210 -6,8 C 16,1 C
28.07.2021 07:38 20,3 C 16,0 C 40 % 20 % 1011,4 hPa 0,0 l/m 13,4 km/h SW22.5 220 -6,9 C 16,0 C
28.07.2021 07:33 20,3 C 16,0 C 40 % 20 % 1011,4 hPa 0,0 l/m 16,5 km/h SW22.5 215 -6,9 C 16,0 C
28.07.2021 07:28 20,3 C 16,0 C 40 % 20 % 1011,4 hPa 0,0 l/m 17,3 km/h SW22.5 225 -6,9 C 16,0 C
28.07.2021 07:23 20,3 C 15,9 C 40 % 20 % 1011,5 hPa 0,0 l/m 17,0 km/h SW22.5 215 -7,0 C 15,9 C
28.07.2021 07:18 20,3 C 15,9 C 40 % 20 % 1010,3 hPa 0,0 l/m 16,4 km/h SW22.5 220 -7,0 C 15,9 C
28.07.2021 07:13 20,2 C 16,1 C 40 % 20 % 1010,2 hPa 0,0 l/m 12,1 km/h SW22.5 215 -6,8 C 16,1 C
28.07.2021 07:08 20,2 C 16,2 C 40 % 20 % 1010,1 hPa 0,0 l/m 15,6 km/h SW22.5 215 -6,8 C 16,2 C
28.07.2021 07:03 20,2 C 16,1 C 40 % 20 % 1010,2 hPa 0,0 l/m 15,5 km/h SW22.5 225 -6,8 C 16,1 C
28.07.2021 06:58 20,2 C 16,2 C 40 % 20 % 1010,1 hPa 0,0 l/m 16,3 km/h SW22.5 225 -6,8 C 16,2 C
28.07.2021 06:53 20,2 C 16,6 C 40 % 20 % 1009,9 hPa 0,0 l/m 20,1 km/h SW22.5 230 -6,4 C 16,6 C
28.07.2021 06:48 20,2 C 16,2 C 40 % 20 % 1010,1 hPa 0,0 l/m 15,8 km/h SW22.5 215 -6,8 C 16,2 C
28.07.2021 06:43 20,2 C 16,5 C 40 % 20 % 1010,0 hPa 0,0 l/m 18,3 km/h SW22.5 220 -6,5 C 16,5 C
28.07.2021 06:38 20,2 C 16,4 C 40 % 20 % 1010,0 hPa 0,0 l/m 18,2 km/h SW22.5 225 -6,6 C 16,4 C
28.07.2021 06:33 20,2 C 16,2 C 40 % 20 % 1010,1 hPa 0,0 l/m 19,6 km/h SW22.5 215 -6,8 C 16,2 C
28.07.2021 06:28 20,1 C 16,1 C 40 % 20 % 1010,2 hPa 0,0 l/m 15,0 km/h S-SW22.5 210 -6,8 C 16,1 C
28.07.2021 06:23 20,2 C 16,1 C 40 % 20 % 1010,2 hPa 0,0 l/m 17,1 km/h SW22.5 215 -6,8 C 16,1 C
28.07.2021 06:18 20,1 C 16,0 C 40 % 20 % 1010,3 hPa 0,0 l/m 17,4 km/h SW22.5 220 -6,9 C 16,0 C
28.07.2021 06:13 20,1 C 16,0 C 40 % 20 % 1010,3 hPa 0,0 l/m 14,1 km/h S-SW22.5 200 -6,9 C 16,0 C
28.07.2021 06:08 20,1 C 16,5 C 40 % 20 % 1010,0 hPa 0,0 l/m 16,2 km/h S-SW22.5 210 -6,5 C 16,5 C
28.07.2021 06:03 20,1 C 16,2 C 40 % 20 % 1010,1 hPa 0,0 l/m 18,6 km/h SW22.5 215 -6,8 C 16,2 C
28.07.2021 05:58 20,1 C 15,9 C 40 % 20 % 1010,3 hPa 0,0 l/m 13,8 km/h S-SW22.5 210 -7,0 C 15,9 C
28.07.2021 05:53 20,1 C 16,0 C 40 % 20 % 1010,3 hPa 0,0 l/m 16,9 km/h SW22.5 220 -6,9 C 16,0 C
28.07.2021 05:48 20,1 C 16,0 C 40 % 20 % 1010,3 hPa 0,0 l/m 17,0 km/h SW22.5 220 -6,9 C 16,0 C
28.07.2021 05:43 20,1 C 16,0 C 40 % 20 % 1010,3 hPa 0,0 l/m 16,6 km/h SW22.5 220 -6,9 C 16,0 C
28.07.2021 05:38 20,1 C 16,0 C 40 % 20 % 1010,3 hPa 0,0 l/m 16,9 km/h SW22.5 225 -6,9 C 16,0 C
28.07.2021 05:33 20,0 C 16,2 C 40 % 20 % 1010,1 hPa 0,0 l/m 19,1 km/h SW22.5 220 -6,8 C 16,2 C
28.07.2021 05:28 20,0 C 16,2 C 40 % 20 % 1010,1 hPa 0,0 l/m 22,8 km/h SW22.5 220 -6,8 C 16,2 C
28.07.2021 05:23 20,0 C 15,9 C 40 % 20 % 1010,3 hPa 0,0 l/m 21,8 km/h S-SW22.5 210 -7,0 C 15,9 C
28.07.2021 05:18 20,0 C 16,3 C 40 % 20 % 1010,1 hPa 0,0 l/m 25,7 km/h SW22.5 215 -6,7 C 16,3 C
28.07.2021 05:13 20,0 C 16,2 C 40 % 20 % 1010,1 hPa 0,0 l/m 23,4 km/h SW22.5 215 -6,8 C 16,2 C
28.07.2021 05:08 20,0 C 16,0 C 40 % 20 % 1010,3 hPa 0,0 l/m 22,0 km/h SW22.5 215 -6,9 C 16,0 C
28.07.2021 05:03 20,0 C 16,2 C 40 % 20 % 1010,1 hPa 0,0 l/m 27,3 km/h SW22.5 215 -6,8 C 16,2 C
28.07.2021 04:58 20,0 C 16,0 C 40 % 20 % 1010,3 hPa 0,0 l/m 24,5 km/h SW22.5 220 -6,9 C 16,0 C
28.07.2021 04:53 20,0 C 15,9 C 40 % 20 % 1010,3 hPa 0,0 l/m 24,5 km/h SW22.5 225 -7,0 C 15,9 C
28.07.2021 04:48 20,0 C 16,0 C 40 % 20 % 1010,3 hPa 0,0 l/m 24,7 km/h SW22.5 225 -6,9 C 16,0 C
28.07.2021 04:37 20,0 C 16,2 C 39 % 20 % 1010,1 hPa 0,0 l/m 24,8 km/h SW22.5 225 -6,8 C 16,2 C
28.07.2021 04:32 20,0 C 15,5 C 40 % 20 % 1010,5 hPa 0,0 l/m 21,0 km/h SW22.5 220 -7,3 C 15,5 C
28.07.2021 04:27 20,0 C 15,8 C 40 % 20 % 1010,4 hPa 0,0 l/m 21,6 km/h SW22.5 225 -7,1 C 15,8 C
28.07.2021 04:22 20,0 C 16,1 C 40 % 20 % 1010,2 hPa 0,0 l/m 25,3 km/h SW22.5 220 -6,8 C 16,1 C
28.07.2021 04:17 20,0 C 15,7 C 40 % 20 % 1010,4 hPa 0,0 l/m 23,0 km/h SW22.5 220 -7,2 C 15,7 C
28.07.2021 04:12 20,0 C 15,4 C 40 % 20 % 1010,6 hPa 0,0 l/m 30,2 km/h SW22.5 225 -7,4 C 15,4 C
28.07.2021 04:07 20,0 C 15,8 C 40 % 20 % 1010,4 hPa 0,0 l/m 27,1 km/h SW22.5 225 -7,1 C 15,8 C
28.07.2021 04:02 20,0 C 16,0 C 39 % 20 % 1010,3 hPa 0,0 l/m 24,3 km/h SW22.5 215 -6,9 C 16,0 C
28.07.2021 03:57 20,0 C 16,0 C 39 % 20 % 1010,3 hPa 0,0 l/m 27,3 km/h SW22.5 220 -6,9 C 16,0 C
28.07.2021 03:52 20,0 C 15,5 C 39 % 20 % 1010,5 hPa 0,0 l/m 25,3 km/h SW22.5 220 -7,3 C 15,5 C
28.07.2021 03:47 20,0 C 15,8 C 39 % 20 % 1010,4 hPa 0,0 l/m 22,5 km/h SW22.5 225 -7,1 C 15,8 C
28.07.2021 03:37 20,0 C 15,5 C 39 % 20 % 1010,5 hPa 0,0 l/m 23,8 km/h SW22.5 220 -7,3 C 15,5 C
28.07.2021 03:32 20,0 C 15,8 C 39 % 20 % 1010,4 hPa 0,0 l/m 26,0 km/h SW22.5 215 -7,1 C 15,8 C
28.07.2021 03:27 20,1 C 15,3 C 39 % 20 % 1010,7 hPa 0,0 l/m 24,8 km/h SW22.5 220 -7,5 C 15,3 C
28.07.2021 03:22 20,0 C 15,2 C 39 % 20 % 1010,7 hPa 0,0 l/m 28,0 km/h S-SW22.5 210 -7,6 C 15,2 C
28.07.2021 03:17 20,0 C 15,4 C 39 % 20 % 1010,6 hPa 0,0 l/m 21,4 km/h SW22.5 220 -7,4 C 15,4 C
28.07.2021 03:12 20,1 C 15,5 C 39 % 20 % 1011,7 hPa 0,0 l/m 30,6 km/h SW22.5 215 -7,3 C 15,5 C
28.07.2021 03:07 20,1 C 15,7 C 38 % 20 % 1010,4 hPa 0,0 l/m 27,5 km/h SW22.5 220 -7,2 C 15,7 C
28.07.2021 03:02 20,1 C 15,8 C 38 % 20 % 1010,4 hPa 0,0 l/m 27,5 km/h SW22.5 220 -7,1 C 15,8 C
28.07.2021 02:57 20,1 C 15,8 C 38 % 20 % 1011,5 hPa 0,0 l/m 29,1 km/h SW22.5 220 -7,1 C 15,8 C
28.07.2021 02:52 20,1 C 15,8 C 38 % 20 % 1011,5 hPa 0,0 l/m 27,6 km/h SW22.5 220 -7,1 C 15,8 C
28.07.2021 02:47 20,1 C 15,7 C 38 % 20 % 1011,6 hPa 0,0 l/m 28,0 km/h SW45 220 -7,2 C 15,7 C
28.07.2021 02:42 20,1 C 16,0 C 38 % 20 % 1011,4 hPa 0,0 l/m 30,1 km/h SW22.5 215 -6,9 C 16,0 C
28.07.2021 02:37 20,1 C 16,2 C 37 % 20 % 1011,3 hPa 0,0 l/m 27,5 km/h SW22.5 215 -6,8 C 16,2 C
28.07.2021 02:32 20,1 C 16,0 C 37 % 20 % 1011,4 hPa 0,0 l/m 27,7 km/h SW22.5 220 -6,9 C 16,0 C
28.07.2021 02:27 20,1 C 16,1 C 37 % 20 % 1011,4 hPa 0,0 l/m 27,4 km/h SW22.5 215 -6,8 C 16,1 C
28.07.2021 02:22 20,1 C 15,7 C 37 % 20 % 1011,6 hPa 0,0 l/m 30,2 km/h SW22.5 215 -7,2 C 15,7 C
28.07.2021 02:17 20,1 C 15,9 C 36 % 20 % 1011,5 hPa 0,0 l/m 35,0 km/h SW22.5 220 -7,0 C 15,9 C
28.07.2021 02:12 20,1 C 15,9 C 36 % 20 % 1011,5 hPa 0,0 l/m 31,6 km/h SW22.5 215 -7,0 C 15,9 C
28.07.2021 02:07 20,1 C 15,8 C 36 % 20 % 1011,5 hPa 0,0 l/m 33,5 km/h SW22.5 220 -7,1 C 15,8 C
28.07.2021 02:02 20,1 C 15,9 C 36 % 20 % 1011,5 hPa 0,0 l/m 34,3 km/h SW22.5 220 -7,0 C 15,9 C
28.07.2021 01:57 20,2 C 16,0 C 36 % 20 % 1011,4 hPa 0,0 l/m 33,3 km/h SW22.5 225 -6,9 C 16,0 C
28.07.2021 01:52 20,1 C 15,8 C 36 % 20 % 1011,5 hPa 0,0 l/m 30,4 km/h SW45 215 -7,1 C 15,8 C
28.07.2021 01:47 20,2 C 16,3 C 36 % 20 % 1011,3 hPa 0,0 l/m 32,2 km/h S-SW22.5 210 -6,7 C 16,3 C
28.07.2021 01:42 20,2 C 16,3 C 36 % 20 % 1011,3 hPa 0,0 l/m 35,8 km/h SW22.5 215 -6,7 C 16,3 C
28.07.2021 01:37 20,2 C 16,0 C 36 % 20 % 1011,4 hPa 0,0 l/m 33,4 km/h SW22.5 220 -6,9 C 16,0 C
28.07.2021 01:32 20,2 C 16,2 C 36 % 20 % 1011,3 hPa 0,0 l/m 35,5 km/h SW22.5 220 -6,8 C 16,2 C
28.07.2021 01:27 20,2 C 16,3 C 37 % 20 % 1011,3 hPa 0,0 l/m 35,5 km/h S-SW22.5 210 -6,7 C 16,3 C
28.07.2021 01:22 20,2 C 16,0 C 37 % 20 % 1011,4 hPa 0,0 l/m 32,0 km/h SW22.5 220 -6,9 C 16,0 C
28.07.2021 01:17 20,3 C 16,0 C 38 % 20 % 1011,4 hPa 0,0 l/m 33,0 km/h SW22.5 215 -6,9 C 16,0 C
28.07.2021 01:12 20,2 C 15,9 C 38 % 20 % 1011,5 hPa 0,0 l/m 29,3 km/h S-SW22.5 210 -7,0 C 15,9 C
28.07.2021 01:07 20,2 C 15,9 C 39 % 20 % 1012,7 hPa 0,0 l/m 30,1 km/h SW22.5 220 -7,0 C 15,9 C
28.07.2021 01:02 20,2 C 15,8 C 39 % 20 % 1012,7 hPa 0,0 l/m 33,3 km/h SW22.5 215 -7,1 C 15,8 C
28.07.2021 00:57 20,3 C 15,7 C 40 % 20 % 1011,6 hPa 0,0 l/m 33,1 km/h SW22.5 220 -7,2 C 15,7 C
28.07.2021 00:52 20,3 C 15,5 C 41 % 20 % 1011,7 hPa 0,0 l/m 30,9 km/h SW22.5 220 -7,3 C 15,5 C
28.07.2021 00:47 20,3 C 15,3 C 42 % 20 % 1011,8 hPa 0,0 l/m 26,4 km/h SW22.5 220 -7,5 C 15,3 C
28.07.2021 00:42 20,3 C 15,0 C 42 % 20 % 1012,0 hPa 0,0 l/m 25,2 km/h SW22.5 215 -7,8 C 15,0 C
28.07.2021 00:37 20,3 C 14,8 C 43 % 20 % 1012,1 hPa 0,0 l/m 25,3 km/h SW22.5 215 -7,9 C 14,8 C
28.07.2021 00:32 20,3 C 14,9 C 43 % 20 % 1012,1 hPa 0,0 l/m 25,6 km/h S-SW22.5 210 -7,8 C 14,9 C
28.07.2021 00:27 20,3 C 15,1 C 43 % 20 % 1011,9 hPa 0,0 l/m 30,2 km/h SW22.5 220 -7,7 C 15,1 C
28.07.2021 00:22 20,2 C 15,1 C 44 % 20 % 1011,9 hPa 0,0 l/m 31,1 km/h SW22.5 220 -7,7 C 15,1 C
28.07.2021 00:17 20,3 C 15,2 C 43 % 20 % 1011,9 hPa 0,0 l/m 33,4 km/h SW22.5 220 -7,6 C 15,2 C
28.07.2021 00:12 20,3 C 15,3 C 43 % 20 % 1011,8 hPa 0,0 l/m 34,1 km/h SW22.5 220 -7,5 C 15,3 C
28.07.2021 00:07 20,3 C 15,3 C 44 % 20 % 1011,8 hPa 0,0 l/m 33,3 km/h SW22.5 215 -7,5 C 15,3 C
28.07.2021 00:02 20,3 C 15,0 C 44 % 20 % 1012,0 hPa 0,0 l/m 36,4 km/h SW22.5 220 -7,8 C 15,0 C
27.07.2021 23:57 20,3 C 15,0 C 44 % 20 % 1012,0 hPa 0,0 l/m 37,8 km/h SW22.5 220 -7,8 C 15,0 C
27.07.2021 23:52 20,4 C 15,3 C 44 % 20 % 1011,8 hPa 0,0 l/m 32,8 km/h SW22.5 215 -7,5 C 15,3 C
27.07.2021 23:47 20,4 C 15,5 C 44 % 20 % 1011,7 hPa 0,0 l/m 37,0 km/h SW22.5 215 -7,3 C 15,5 C
27.07.2021 23:42 20,4 C 15,3 C 43 % 20 % 1011,8 hPa 0,0 l/m 32,5 km/h SW22.5 215 -7,5 C 15,3 C
27.07.2021 23:37 20,3 C 15,7 C 42 % 20 % 1011,6 hPa 0,0 l/m 38,9 km/h SW22.5 215 -7,2 C 15,7 C
27.07.2021 23:32 20,4 C 15,3 C 44 % 20 % 1011,8 hPa 0,0 l/m 39,1 km/h SW22.5 220 -7,5 C 15,3 C
27.07.2021 23:27 20,5 C 15,4 C 44 % 20 % 1011,8 hPa 0,0 l/m 31,3 km/h SW22.5 220 -7,4 C 15,4 C
27.07.2021 23:22 20,5 C 15,7 C 44 % 20 % 1012,8 hPa 0,0 l/m 37,0 km/h SW22.5 215 -7,2 C 15,7 C
27.07.2021 23:17 20,5 C 15,7 C 44 % 20 % 1012,8 hPa 0,0 l/m 38,5 km/h SW22.5 215 -7,2 C 15,7 C
27.07.2021 23:12 20,6 C 15,6 C 44 % 20 % 1012,8 hPa 0,0 l/m 34,0 km/h SW22.5 215 -7,3 C 15,6 C
27.07.2021 23:07 20,7 C 15,8 C 44 % 20 % 1012,7 hPa 0,0 l/m 35,8 km/h SW22.5 220 -7,1 C 15,8 C
27.07.2021 23:02 20,7 C 15,6 C 44 % 20 % 1012,8 hPa 0,0 l/m 34,5 km/h SW22.5 220 -7,3 C 15,6 C
27.07.2021 22:57 20,8 C 15,5 C 44 % 20 % 1012,9 hPa 0,0 l/m 33,0 km/h SW22.5 220 -7,3 C 15,5 C
27.07.2021 22:52 20,8 C 15,6 C 44 % 20 % 1012,8 hPa 0,0 l/m 28,3 km/h SW22.5 215 -7,3 C 15,6 C
27.07.2021 22:47 20,8 C 15,9 C 44 % 20 % 1012,7 hPa 0,0 l/m 29,3 km/h SW22.5 220 -7,0 C 15,9 C
27.07.2021 22:42 20,8 C 15,7 C 44 % 20 % 1012,8 hPa 0,0 l/m 27,5 km/h SW22.5 215 -7,2 C 15,7 C
27.07.2021 22:37 20,8 C 15,7 C 45 % 20 % 1012,8 hPa 0,0 l/m 27,5 km/h SW22.5 215 -7,2 C 15,7 C
27.07.2021 22:32 20,9 C 16,1 C 45 % 20 % 1012,6 hPa 0,0 l/m 24,7 km/h SW22.5 220 -6,8 C 16,1 C
27.07.2021 22:27 20,9 C 16,3 C 45 % 20 % 1012,4 hPa 0,0 l/m 34,6 km/h SW45 225 -6,7 C 16,3 C
27.07.2021 22:22 20,9 C 16,2 C 45 % 20 % 1012,5 hPa 0,0 l/m 32,4 km/h SW22.5 225 -6,8 C 16,2 C
27.07.2021 22:17 20,9 C 16,4 C 46 % 20 % 1012,4 hPa 0,0 l/m 37,9 km/h SW22.5 220 -6,6 C 16,4 C
27.07.2021 22:12 20,9 C 16,8 C 45 % 20 % 1012,2 hPa 0,0 l/m 37,0 km/h S-SW22.5 210 -6,3 C 16,8 C
27.07.2021 22:07 20,9 C 17,0 C 45 % 20 % 1012,0 hPa 0,0 l/m 40,2 km/h SW45 220 -6,1 C 17,0 C
27.07.2021 22:02 21,0 C 17,0 C 44 % 20 % 1012,0 hPa 0,0 l/m 40,8 km/h SW22.5 215 -6,1 C 17,0 C
27.07.2021 21:57 21,0 C 17,2 C 45 % 20 % 1011,9 hPa 0,0 l/m 40,9 km/h SW22.5 215 -5,9 C 17,2 C
27.07.2021 21:52 21,0 C 17,0 C 45 % 20 % 1012,0 hPa 0,0 l/m 38,2 km/h SW22.5 220 -6,1 C 17,0 C
27.07.2021 21:47 21,1 C 16,9 C 45 % 20 % 1012,1 hPa 0,0 l/m 29,5 km/h SW22.5 220 -6,2 C 16,9 C
27.07.2021 21:42 21,1 C 16,8 C 45 % 20 % 1012,2 hPa 0,0 l/m 33,0 km/h SW22.5 220 -6,3 C 16,8 C
27.07.2021 21:37 21,2 C 16,5 C 45 % 20 % 1012,3 hPa 0,0 l/m 25,4 km/h S-SW22.5 210 -6,5 C 16,5 C
27.07.2021 21:32 21,2 C 16,8 C 45 % 20 % 1012,2 hPa 0,0 l/m 31,5 km/h SW22.5 220 -6,3 C 16,8 C
27.07.2021 21:27 21,2 C 16,9 C 45 % 20 % 1012,1 hPa 0,0 l/m 32,0 km/h SW22.5 220 -6,2 C 16,9 C
27.07.2021 21:22 21,2 C 16,7 C 45 % 20 % 1012,2 hPa 0,0 l/m 28,9 km/h SW22.5 220 -6,3 C 16,7 C
27.07.2021 21:17 21,2 C 16,6 C 45 % 20 % 1012,3 hPa 0,0 l/m 29,1 km/h SW22.5 220 -6,4 C 16,6 C
27.07.2021 21:12 21,2 C 16,8 C 45 % 20 % 1012,2 hPa 0,0 l/m 31,0 km/h SW22.5 215 -6,3 C 16,8 C
27.07.2021 21:07 21,3 C 16,8 C 45 % 20 % 1012,2 hPa 0,0 l/m 27,3 km/h SW22.5 220 -6,3 C 16,8 C
27.07.2021 21:02 21,3 C 16,7 C 45 % 20 % 1012,2 hPa 0,0 l/m 27,9 km/h SW22.5 215 -6,3 C 16,7 C
27.07.2021 20:57 21,3 C 17,0 C 45 % 20 % 1012,0 hPa 0,0 l/m 28,3 km/h SW22.5 220 -6,1 C 17,0 C
27.07.2021 20:52 21,4 C 17,0 C 45 % 20 % 1012,0 hPa 0,0 l/m 27,1 km/h SW22.5 215 -6,1 C 17,0 C
27.07.2021 20:47 21,4 C 16,6 C 45 % 20 % 1012,3 hPa 0,0 l/m 30,3 km/h S-SW22.5 210 -6,4 C 16,6 C
27.07.2021 20:42 21,4 C 17,0 C 44 % 20 % 1012,0 hPa 0,0 l/m 22,7 km/h SW22.5 215 -6,1 C 17,0 C
27.07.2021 20:37 21,5 C 16,9 C 44 % 20 % 1012,1 hPa 0,0 l/m 20,5 km/h SW22.5 215 -6,2 C 16,9 C
27.07.2021 20:32 21,5 C 17,2 C 44 % 20 % 1011,9 hPa 0,0 l/m 25,6 km/h SW22.5 220 -5,9 C 17,2 C
27.07.2021 20:27 21,5 C 17,1 C 44 % 20 % 1012,0 hPa 0,0 l/m 20,5 km/h S-SW22.5 210 -6,0 C 17,1 C
27.07.2021 20:22 21,6 C 17,1 C 44 % 20 % 1012,0 hPa 0,0 l/m 22,5 km/h SW22.5 220 -6,0 C 17,1 C
27.07.2021 20:17 21,6 C 17,2 C 44 % 20 % 1010,8 hPa 0,0 l/m 23,8 km/h SW22.5 225 -5,9 C 17,2 C
27.07.2021 20:12 21,6 C 17,2 C 44 % 20 % 1011,9 hPa 0,0 l/m 22,2 km/h SW22.5 215 -5,9 C 17,2 C
27.07.2021 20:07 21,6 C 17,4 C 43 % 20 % 1011,8 hPa 0,0 l/m 25,6 km/h SW22.5 215 -5,8 C 17,4 C
27.07.2021 20:02 21,6 C 17,4 C 43 % 20 % 1011,8 hPa 0,0 l/m 28,2 km/h S-SW22.5 210 -5,8 C 17,4 C
27.07.2021 19:57 21,7 C 17,5 C 43 % 20 % 1010,6 hPa 0,0 l/m 26,8 km/h SW22.5 225 -5,7 C 17,5 C
27.07.2021 19:52 21,7 C 17,5 C 43 % 20 % 1010,6 hPa 0,0 l/m 27,2 km/h SW22.5 215 -5,7 C 17,5 C
27.07.2021 19:47 21,7 C 17,7 C 42 % 20 % 1010,5 hPa 0,0 l/m 28,7 km/h SW22.5 215 -5,5 C 17,7 C
27.07.2021 19:42 21,8 C 17,9 C 42 % 20 % 1010,4 hPa 0,0 l/m 27,7 km/h S-SW45 210 -5,4 C 17,9 C
27.07.2021 19:37 21,9 C 17,9 C 42 % 20 % 1010,4 hPa 0,0 l/m 30,3 km/h SW22.5 225 -5,4 C 17,9 C
27.07.2021 19:32 21,8 C 17,9 C 42 % 20 % 1010,4 hPa 0,0 l/m 27,5 km/h SW22.5 220 -5,4 C 17,9 C
27.07.2021 19:27 21,9 C 17,9 C 41 % 20 % 1011,5 hPa 0,0 l/m 26,9 km/h SW22.5 215 -5,4 C 17,9 C
27.07.2021 19:22 21,9 C 18,0 C 41 % 20 % 1011,5 hPa 0,0 l/m 28,7 km/h SW22.5 225 -5,3 C 18,0 C
27.07.2021 19:17 22,0 C 18,0 C 40 % 20 % 1011,5 hPa 0,0 l/m 26,4 km/h SW22.5 220 -5,3 C 18,0 C
27.07.2021 19:12 22,0 C 18,0 C 40 % 20 % 1011,5 hPa 0,0 l/m 23,5 km/h SW22.5 220 -5,3 C 18,0 C
27.07.2021 19:07 22,1 C 18,2 C 40 % 20 % 1011,4 hPa 0,0 l/m 25,2 km/h SW22.5 220 -5,1 C 18,2 C
27.07.2021 19:02 22,2 C 18,2 C 40 % 20 % 1011,4 hPa 0,0 l/m 23,8 km/h SW22.5 215 -5,1 C 18,2 C
27.07.2021 18:57 22,1 C 18,2 C 40 % 20 % 1011,4 hPa 0,0 l/m 20,3 km/h SW22.5 215 -5,1 C 18,2 C
27.07.2021 18:52 22,2 C 18,3 C 39 % 20 % 1011,3 hPa 0,0 l/m 21,8 km/h SW22.5 225 -5,0 C 18,3 C
27.07.2021 18:47 22,3 C 18,3 C 38 % 20 % 1011,3 hPa 0,0 l/m 25,0 km/h SW22.5 225 -5,0 C 18,3 C
27.07.2021 18:42 22,4 C 18,3 C 39 % 20 % 1011,3 hPa 0,0 l/m 22,3 km/h SW22.5 225 -5,0 C 18,3 C
27.07.2021 18:37 22,5 C 18,3 C 39 % 20 % 1011,3 hPa 0,0 l/m 22,6 km/h SW22.5 225 -5,0 C 18,3 C
27.07.2021 18:32 22,5 C 18,5 C 39 % 20 % 1011,2 hPa 0,0 l/m 19,5 km/h S-SW22.5 210 -4,9 C 18,5 C
27.07.2021 18:27 22,7 C 18,4 C 38 % 20 % 1011,3 hPa 0,0 l/m 24,0 km/h SW22.5 225 -4,9 C 18,4 C
27.07.2021 18:22 22,7 C 18,3 C 38 % 20 % 1011,3 hPa 0,0 l/m 22,8 km/h SW22.5 225 -5,0 C 18,3 C
27.07.2021 18:17 22,8 C 18,2 C 38 % 20 % 1010,2 hPa 0,0 l/m 21,1 km/h SW22.5 225 -5,1 C 18,2 C
27.07.2021 18:12 22,8 C 18,5 C 37 % 20 % 1010,0 hPa 0,0 l/m 24,8 km/h SW22.5 230 -4,9 C 18,5 C
27.07.2021 18:07 22,8 C 18,9 C 37 % 20 % 1009,8 hPa 0,0 l/m 25,1 km/h SW22.5 225 -4,5 C 18,9 C
27.07.2021 18:02 22,8 C 19,0 C 38 % 20 % 1009,8 hPa 0,0 l/m 24,3 km/h SW22.5 225 -4,5 C 19,0 C
27.07.2021 17:57 22,7 C 18,6 C 37 % 20 % 1011,2 hPa 0,0 l/m 20,8 km/h SW 220 -4,8 C 18,6 C
27.07.2021 17:52 22,7 C 18,6 C 38 % 20 % 1011,2 hPa 0,0 l/m 25,5 km/h SW22.5 225 -4,8 C 18,6 C
27.07.2021 17:47 22,7 C 18,7 C 38 % 20 % 1011,1 hPa 0,0 l/m 23,1 km/h SW22.5 220 -4,7 C 18,7 C
27.07.2021 17:42 22,7 C 18,7 C 39 % 20 % 1011,1 hPa 0,0 l/m 24,6 km/h SW22.5 215 -4,7 C 18,7 C
27.07.2021 17:37 22,6 C 18,7 C 38 % 20 % 1011,1 hPa 0,0 l/m 25,6 km/h SW22.5 215 -4,7 C 18,7 C
27.07.2021 17:32 22,5 C 18,8 C 39 % 20 % 1011,0 hPa 0,0 l/m 29,8 km/h SW22.5 215 -4,6 C 18,8 C
27.07.2021 17:27 22,5 C 18,5 C 39 % 20 % 1011,2 hPa 0,0 l/m 26,3 km/h SW22.5 215 -4,9 C 18,5 C
27.07.2021 17:22 22,4 C 18,4 C 40 % 20 % 1011,3 hPa 0,0 l/m 30,0 km/h SW22.5 225 -4,9 C 18,4 C
27.07.2021 17:17 22,2 C 18,4 C 40 % 20 % 1011,3 hPa 0,0 l/m 29,3 km/h SW22.5 215 -4,9 C 18,4 C
27.07.2021 17:12 22,2 C 18,0 C 40 % 20 % 1011,5 hPa 0,0 l/m 27,3 km/h S-SW45 205 -5,3 C 18,0 C
27.07.2021 17:07 22,2 C 17,9 C 39 % 20 % 1011,5 hPa 0,0 l/m 30,2 km/h SW22.5 225 -5,4 C 17,9 C
27.07.2021 17:02 22,1 C 18,9 C 40 % 20 % 1011,0 hPa 0,0 l/m 30,2 km/h SW22.5 225 -4,5 C 18,9 C
27.07.2021 16:57 22,0 C 18,7 C 41 % 20 % 1011,1 hPa 0,0 l/m 33,7 km/h SW22.5 215 -4,7 C 18,7 C
27.07.2021 16:52 22,0 C 18,1 C 40 % 20 % 1011,4 hPa 0,0 l/m 31,5 km/h SW22.5 220 -5,2 C 18,1 C
27.07.2021 16:47 21,8 C 18,4 C 42 % 20 % 1011,3 hPa 0,0 l/m 29,1 km/h S-SW22.5 205 -4,9 C 18,4 C
27.07.2021 16:42 21,7 C 18,2 C 43 % 20 % 1011,4 hPa 0,0 l/m 22,6 km/h SW45 215 -5,1 C 18,2 C
27.07.2021 16:37 21,5 C 17,5 C 44 % 20 % 1011,8 hPa 0,0 l/m 23,6 km/h SW22.5 225 -5,7 C 17,5 C
27.07.2021 16:32 21,4 C 17,0 C 46 % 20 % 1012,0 hPa 0,0 l/m 25,5 km/h SW22.5 225 -6,1 C 17,0 C
27.07.2021 16:27 21,2 C 17,3 C 47 % 20 % 1011,9 hPa 0,0 l/m 21,6 km/h S-SW22.5 210 -5,9 C 17,3 C
27.07.2021 16:22 20,9 C 16,1 C 48 % 20 % 1013,7 hPa 0,0 l/m 24,6 km/h S-SW22.5 210 -6,8 C 16,1 C
27.07.2021 16:17 20,8 C 16,0 C 47 % 20 % 1013,8 hPa 0,0 l/m 30,7 km/h SW22.5 220 -6,9 C 16,0 C
27.07.2021 16:12 20,8 C 16,4 C 46 % 20 % 1013,6 hPa 0,0 l/m 35,4 km/h SW22.5 215 -6,6 C 16,4 C
27.07.2021 16:07 20,9 C 16,4 C 46 % 20 % 1013,6 hPa 0,0 l/m 31,3 km/h SW22.5 225 -6,6 C 16,4 C
27.07.2021 16:02 20,9 C 16,4 C 46 % 20 % 1013,6 hPa 0,0 l/m 32,0 km/h SW22.5 220 -6,6 C 16,4 C
27.07.2021 15:57 20,9 C 16,3 C 45 % 20 % 1013,6 hPa 0,0 l/m 27,8 km/h SW22.5 220 -6,7 C 16,3 C
27.07.2021 15:52 21,0 C 16,6 C 44 % 20 % 1012,3 hPa 0,0 l/m 33,2 km/h SW22.5 215 -6,4 C 16,6 C
27.07.2021 15:47 21,0 C 16,6 C 44 % 20 % 1012,3 hPa 0,0 l/m 28,7 km/h SW22.5 220 -6,4 C 16,6 C
27.07.2021 15:42 21,0 C 16,8 C 43 % 20 % 1012,2 hPa 0,0 l/m 30,5 km/h SW22.5 220 -6,3 C 16,8 C
27.07.2021 15:37 21,1 C 17,0 C 43 % 20 % 1012,0 hPa 0,0 l/m 30,1 km/h SW22.5 220 -6,1 C 17,0 C
27.07.2021 15:32 21,1 C 17,3 C 43 % 20 % 1011,9 hPa 0,0 l/m 30,5 km/h SW22.5 215 -5,9 C 17,3 C
27.07.2021 15:27 21,1 C 17,6 C 43 % 20 % 1011,7 hPa 0,0 l/m 29,8 km/h SW22.5 215 -5,6 C 17,6 C
27.07.2021 15:22 21,0 C 17,0 C 43 % 20 % 1012,0 hPa 0,0 l/m 32,1 km/h S-SW22.5 210 -6,1 C 17,0 C
27.07.2021 15:17 21,0 C 17,0 C 43 % 20 % 1013,2 hPa 0,0 l/m 26,0 km/h SW22.5 220 -6,1 C 17,0 C
27.07.2021 15:12 21,0 C 16,9 C 43 % 20 % 1013,3 hPa 0,0 l/m 27,8 km/h SW22.5 215 -6,2 C 16,9 C
27.07.2021 15:07 21,0 C 16,8 C 43 % 20 % 1013,3 hPa 0,0 l/m 31,7 km/h SW45 215 -6,3 C 16,8 C
27.07.2021 15:02 21,0 C 16,7 C 43 % 20 % 1013,4 hPa 0,0 l/m 30,2 km/h SW22.5 220 -6,3 C 16,7 C
27.07.2021 14:57 21,1 C 16,6 C 43 % 20 % 1013,5 hPa 0,0 l/m 29,6 km/h SW22.5 215 -6,4 C 16,6 C
27.07.2021 14:52 21,2 C 16,7 C 43 % 20 % 1013,4 hPa 0,0 l/m 30,5 km/h SW22.5 215 -6,3 C 16,7 C
27.07.2021 14:47 21,2 C 16,8 C 43 % 20 % 1013,3 hPa 0,0 l/m 34,7 km/h SW22.5 225 -6,3 C 16,8 C
27.07.2021 14:42 21,4 C 16,8 C 43 % 20 % 1013,3 hPa 0,0 l/m 30,1 km/h S-SW45 200 -6,3 C 16,8 C
27.07.2021 14:37 21,5 C 17,1 C 42 % 20 % 1013,2 hPa 0,0 l/m 35,7 km/h SW22.5 220 -6,0 C 17,1 C
27.07.2021 14:32 21,6 C 17,2 C 43 % 20 % 1013,1 hPa 0,0 l/m 34,3 km/h SW22.5 220 -5,9 C 17,2 C
27.07.2021 14:27 21,7 C 17,5 C 42 % 20 % 1011,8 hPa 0,0 l/m 34,6 km/h SW45 215 -5,7 C 17,5 C
27.07.2021 14:22 21,7 C 18,4 C 44 % 20 % 1011,3 hPa 0,0 l/m 37,9 km/h SW22.5 225 -4,9 C 18,4 C
27.07.2021 14:17 21,6 C 17,9 C 44 % 20 % 1011,5 hPa 0,0 l/m 31,3 km/h SW22.5 225 -5,4 C 17,9 C
27.07.2021 14:12 21,6 C 18,7 C 43 % 20 % 1011,1 hPa 0,0 l/m 34,6 km/h SW45 215 -4,7 C 18,7 C
27.07.2021 14:07 21,6 C 18,9 C 44 % 20 % 1011,0 hPa 0,0 l/m 32,5 km/h SW22.5 225 -4,5 C 18,9 C
27.07.2021 14:02 21,5 C 18,6 C 44 % 20 % 1011,2 hPa 0,0 l/m 42,8 km/h SW22.5 220 -4,8 C 18,6 C
_ Min-Zeit 05:33 00:37 02:17 13:23 11:38 - 07:13 - - 00:37 00:37
Minimum _ 20,0 C 14,8 C 36 % 20 % 1007,3 hPa - 12,1 km/h - - -7,9 C 14,8 C
_ Max-Zeit 18:17 11:38 16:22 13:23 16:17 12:43 14:02 - - 11:38 11:38
Maximum _ 22,8 C 21,4 C 48 % 20 % 1013,8 hPa 1,4 l/m 42,8 km/h
SW
- - -2,5 C 21,4 C
Durchschnitt _ 20,9 C 17,3 C 41 % 20 % 1010,9 hPa #2,9 l/m 27,9 km/h SW - -5,9 C 17,3 C